Time;durP1;ratioP1;P1;durP2;ratioP2;P2;SDS_P1;SDS_P2;PMS_P1;PMS_P2;Temp;Humidity;BMP_temperature;BMP_pressure;BME280_temperature;BME280_humidity;BME280_pressure;Samples;Min_cycle;Max_cycle;Signal;HPM_P1;HPM_P2
2021/07/09 00:01:01;;;;;;;60.00;29.17;;;16.40;99.90;;;;;;5022294;28;20043;-81
2021/07/09 00:03:27;;;;;;;54.08;27.40;;;16.40;99.90;;;;;;4974960;28;20186;-81
2021/07/09 00:05:53;;;;;;;58.20;29.38;;;16.40;99.90;;;;;;5025603;28;20033;-81
2021/07/09 00:08:19;;;;;;;60.03;28.63;;;16.40;99.90;;;;;;5013654;28;20500;-81
2021/07/09 00:10:45;;;;;;;46.88;26.05;;;16.30;99.90;;;;;;5013401;28;20859;-81
2021/07/09 00:13:10;;;;;;;52.13;26.08;;;16.30;99.90;;;;;;4995109;28;20040;-81
2021/07/09 00:15:36;;;;;;;51.80;26.52;;;16.30;99.90;;;;;;5012422;28;20045;-82
2021/07/09 00:18:03;;;;;;;50.47;27.17;;;16.30;99.90;;;;;;5025064;28;20099;-81
2021/07/09 00:20:29;;;;;;;60.70;28.70;;;16.30;99.90;;;;;;4995219;28;20059;-81
2021/07/09 00:22:56;;;;;;;64.90;31.50;;;16.30;99.90;;;;;;4988433;28;20139;-82
2021/07/09 00:25:22;;;;;;;62.25;28.00;;;16.30;99.90;;;;;;5020169;28;20089;-82
2021/07/09 00:27:48;;;;;;;47.58;26.60;;;16.30;99.90;;;;;;5022547;28;20091;-81
2021/07/09 00:30:15;;;;;;;53.53;27.65;;;16.20;99.90;;;;;;4992187;28;20041;-81
2021/07/09 00:32:40;;;;;;;56.47;29.77;;;16.20;99.90;;;;;;5027894;28;20051;-81
2021/07/09 00:35:07;;;;;;;48.42;26.23;;;16.20;99.90;;;;;;5015653;28;20041;-81
2021/07/09 00:37:32;;;;;;;52.72;27.83;;;16.20;99.90;;;;;;5018857;28;20037;-81
2021/07/09 00:39:58;;;;;;;42.40;24.17;;;16.20;99.90;;;;;;4996684;28;20037;-82
2021/07/09 00:42:24;;;;;;;57.08;28.05;;;16.20;99.90;;;;;;5005842;28;20044;-81
2021/07/09 00:44:50;;;;;;;42.55;25.85;;;16.20;99.90;;;;;;4991329;28;20128;-81
2021/07/09 00:47:17;;;;;;;45.90;24.55;;;16.10;99.90;;;;;;5019249;28;20038;-81
2021/07/09 00:49:43;;;;;;;42.80;25.50;;;16.10;99.90;;;;;;4991262;28;20460;-81
2021/07/09 00:52:09;;;;;;;53.08;26.33;;;16.10;99.90;;;;;;5016289;28;20544;-82
2021/07/09 00:54:35;;;;;;;45.05;25.15;;;16.10;99.90;;;;;;5019385;28;20033;-81
2021/07/09 00:57:01;;;;;;;44.58;25.23;;;16.10;99.90;;;;;;5027604;28;20037;-81
2021/07/09 00:59:27;;;;;;;67.10;30.08;;;16.10;99.90;;;;;;5010271;28;20029;-81
2021/07/09 01:01:53;;;;;;;53.42;27.92;;;16.10;99.90;;;;;;5018743;28;20045;-80
2021/07/09 01:04:20;;;;;;;56.08;29.77;;;16.10;99.90;;;;;;5001386;28;20058;-81
2021/07/09 01:06:46;;;;;;;61.00;29.75;;;16.10;99.90;;;;;;5023257;28;20088;-81
2021/07/09 01:09:12;;;;;;;53.25;27.83;;;16.10;99.90;;;;;;5015863;28;20056;-81
2021/07/09 01:11:38;;;;;;;69.15;31.42;;;16.10;99.90;;;;;;5024030;28;20030;-81
2021/07/09 01:14:07;;;;;;;59.92;30.40;;;16.10;99.90;;;;;;5017325;28;20504;-80
2021/07/09 01:16:33;;;;;;;54.80;27.98;;;16.10;99.90;;;;;;5026152;28;20040;-81
2021/07/09 01:18:59;;;;;;;58.65;28.30;;;16.00;99.90;;;;;;5021825;28;20055;-81
2021/07/09 01:21:25;;;;;;;58.15;28.63;;;16.00;99.90;;;;;;5023755;28;20047;-80
2021/07/09 01:24:01;;;;;;;47.13;25.92;;;16.00;99.90;;;;;;5009924;28;20643;-81
2021/07/09 01:26:27;;;;;;;52.95;26.33;;;16.00;99.90;;;;;;5004430;28;20043;-81
2021/07/09 01:28:53;;;;;;;47.00;24.20;;;16.00;99.90;;;;;;5027594;28;20037;-81
2021/07/09 01:31:19;;;;;;;44.92;24.58;;;16.00;99.90;;;;;;5021111;28;20036;-81
2021/07/09 01:33:45;;;;;;;44.65;24.77;;;16.00;99.90;;;;;;5036918;28;20038;-81
2021/07/09 01:36:11;;;;;;;46.97;24.52;;;15.90;99.90;;;;;;5002692;28;20036;-81
2021/07/09 01:38:37;;;;;;;43.83;24.42;;;15.90;99.90;;;;;;4994756;28;20060;-81
2021/07/09 01:41:03;;;;;;;50.53;25.60;;;15.90;99.90;;;;;;5019093;28;20067;-81
2021/07/09 01:43:30;;;;;;;50.97;26.58;;;15.90;99.90;;;;;;5014396;28;20045;-81
2021/07/09 01:45:56;;;;;;;43.55;24.98;;;15.90;99.90;;;;;;5018911;28;22154;-80
2021/07/09 01:48:22;;;;;;;58.47;25.40;;;15.90;99.90;;;;;;5021832;28;20484;-81
2021/07/09 01:50:48;;;;;;;53.55;25.15;;;15.90;99.90;;;;;;5025638;28;20045;-81
2021/07/09 01:53:14;;;;;;;57.20;25.90;;;15.90;99.90;;;;;;5007027;28;21143;-81
2021/07/09 01:55:40;;;;;;;52.25;26.95;;;15.90;99.90;;;;;;5010389;28;20041;-81
2021/07/09 01:58:06;;;;;;;43.83;24.85;;;15.90;99.90;;;;;;5011359;28;20407;-81
2021/07/09 02:00:32;;;;;;;46.60;25.60;;;15.90;99.90;;;;;;5001048;28;20033;-81
2021/07/09 02:02:57;;;;;;;46.60;26.08;;;15.90;99.90;;;;;;4991503;28;20495;-81
2021/07/09 02:05:24;;;;;;;39.53;24.98;;;15.90;99.90;;;;;;4999990;28;20446;-81
2021/07/09 02:07:55;;;;;;;46.63;26.42;;;15.80;99.90;;;;;;5007943;28;21433;-81
2021/07/09 02:10:24;;;;;;;52.55;28.48;;;15.90;99.90;;;;;;5008841;28;20741;-80
2021/07/09 02:12:54;;;;;;;53.97;30.15;;;15.90;99.90;;;;;;5018116;28;20270;-81
2021/07/09 02:15:23;;;;;;;54.83;28.90;;;15.90;99.90;;;;;;5016064;28;20477;-80
2021/07/09 02:17:49;;;;;;;57.53;30.30;;;15.90;99.90;;;;;;5020093;28;20033;-81
2021/07/09 02:20:18;;;;;;;51.20;28.73;;;15.90;99.90;;;;;;5015592;28;20139;-80
2021/07/09 02:22:45;;;;;;;63.83;33.42;;;15.90;99.90;;;;;;5018875;28;20248;-81
2021/07/09 02:25:12;;;;;;;53.60;29.65;;;15.90;99.90;;;;;;5007280;28;20045;-81
2021/07/09 02:27:39;;;;;;;53.78;28.75;;;15.90;99.90;;;;;;5018026;28;20560;-81
2021/07/09 02:30:11;;;;;;;57.33;28.17;;;15.80;99.90;;;;;;5017625;28;20037;-81
2021/07/09 02:32:39;;;;;;;58.22;31.42;;;15.80;99.90;;;;;;5017346;28;20486;-81
2021/07/09 02:35:06;;;;;;;61.70;31.23;;;15.80;99.90;;;;;;5017034;28;20034;-80
2021/07/09 02:37:32;;;;;;;66.13;31.60;;;15.80;99.90;;;;;;4991314;28;20701;-81
2021/07/09 02:40:00;;;;;;;54.85;29.80;;;15.80;99.90;;;;;;5016179;28;20068;-81
2021/07/09 02:42:26;;;;;;;53.30;31.10;;;15.80;99.90;;;;;;4996660;28;20363;-81
2021/07/09 02:44:52;;;;;;;52.58;29.50;;;15.80;99.90;;;;;;5007020;28;20115;-81
2021/07/09 02:47:17;;;;;;;52.70;29.85;;;15.80;99.90;;;;;;5003364;28;20723;-81
2021/07/09 02:49:44;;;;;;;63.22;31.98;;;15.80;99.90;;;;;;5013695;28;20123;-81
2021/07/09 02:52:11;;;;;;;75.03;38.35;;;15.80;99.90;;;;;;5004448;28;20047;-81
2021/07/09 02:54:37;;;;;;;85.60;37.83;;;15.80;99.90;;;;;;4985626;28;20849;-81
2021/07/09 02:57:03;;;;;;;79.03;37.90;;;15.80;99.90;;;;;;5021046;28;20045;-81
2021/07/09 02:59:29;;;;;;;73.95;35.28;;;15.80;99.90;;;;;;5000482;28;20079;-81
2021/07/09 03:01:54;;;;;;;62.75;33.50;;;15.80;99.90;;;;;;5017643;28;20033;-81
2021/07/09 03:04:20;;;;;;;63.88;34.15;;;15.80;99.90;;;;;;4992935;28;20487;-81
2021/07/09 03:06:46;;;;;;;71.60;35.55;;;15.80;99.90;;;;;;5020701;28;20033;-81
2021/07/09 03:09:12;;;;;;;72.78;35.55;;;15.80;99.90;;;;;;5021731;28;20391;-81
2021/07/09 03:11:39;;;;;;;79.72;36.97;;;15.80;99.90;;;;;;4990764;28;20036;-81
2021/07/09 03:14:08;;;;;;;65.35;34.55;;;15.70;99.90;;;;;;5008191;28;20041;-81
2021/07/09 03:16:36;;;;;;;86.30;37.92;;;15.80;99.90;;;;;;5011888;28;20468;-81
2021/07/09 03:19:04;;;;;;;66.50;34.70;;;15.70;99.90;;;;;;4999694;28;20037;-81
2021/07/09 03:21:30;;;;;;;79.50;37.30;;;15.70;99.90;;;;;;5036745;28;20056;-80
2021/07/09 03:23:56;;;;;;;71.47;34.67;;;15.70;99.90;;;;;;5006314;28;20048;-81
2021/07/09 03:26:22;;;;;;;65.45;33.70;;;15.70;99.90;;;;;;5009420;28;20513;-80
2021/07/09 03:28:48;;;;;;;87.15;37.70;;;15.70;99.90;;;;;;5012017;28;20589;-80
2021/07/09 03:31:14;;;;;;;71.00;36.15;;;15.70;99.90;;;;;;5010265;28;20087;-80
2021/07/09 03:33:40;;;;;;;60.10;32.47;;;15.70;99.90;;;;;;5017103;28;20065;-81
2021/07/09 03:36:06;;;;;;;74.40;35.20;;;15.70;99.90;;;;;;5025699;28;20045;-81
2021/07/09 03:38:32;;;;;;;72.28;36.40;;;15.70;99.90;;;;;;5015087;28;20043;-81
2021/07/09 03:40:58;;;;;;;64.68;33.05;;;15.70;99.90;;;;;;5027370;28;20041;-81
2021/07/09 03:43:24;;;;;;;63.72;34.17;;;15.70;99.90;;;;;;4997410;28;20048;-80
2021/07/09 03:45:49;;;;;;;80.38;36.85;;;15.70;99.90;;;;;;5014516;28;20042;-81
2021/07/09 03:48:15;;;;;;;65.57;33.67;;;15.70;99.90;;;;;;5032849;28;20099;-81
2021/07/09 03:50:42;;;;;;;66.63;34.22;;;15.70;99.90;;;;;;4999507;28;20068;-81
2021/07/09 03:53:07;;;;;;;60.90;31.88;;;15.70;99.90;;;;;;4996175;28;20064;-81
2021/07/09 03:55:33;;;;;;;71.45;33.70;;;15.70;99.90;;;;;;5001421;28;20421;-81
2021/07/09 04:01:40;;;;;;;64.97;31.20;;;15.70;99.90;;;;;;5040166;28;20467;-80
2021/07/09 04:04:06;;;;;;;73.57;34.67;;;15.70;99.90;;;;;;5019324;28;20204;-81
2021/07/09 04:06:32;;;;;;;67.47;33.67;;;15.70;99.90;;;;;;5016883;28;20486;-81
2021/07/09 04:08:58;;;;;;;73.47;33.47;;;15.70;99.90;;;;;;5020914;28;20065;-81
2021/07/09 04:11:23;;;;;;;64.78;32.92;;;15.70;99.90;;;;;;5006905;28;20025;-81
2021/07/09 04:13:49;;;;;;;73.40;34.38;;;15.70;99.90;;;;;;5034497;28;20511;-81
2021/07/09 04:16:15;;;;;;;68.50;33.78;;;15.70;99.90;;;;;;5025779;28;20520;-81
2021/07/09 04:18:41;;;;;;;75.70;33.80;;;15.70;99.90;;;;;;5020542;28;20032;-81
2021/07/09 04:21:07;;;;;;;62.92;31.98;;;15.80;99.90;;;;;;5018378;28;20060;-81
2021/07/09 04:23:33;;;;;;;61.28;30.95;;;15.80;99.90;;;;;;5041166;28;20087;-81
2021/07/09 04:25:59;;;;;;;77.30;33.80;;;15.70;99.90;;;;;;5011225;28;20096;-81
2021/07/09 04:28:24;;;;;;;65.20;32.60;;;15.80;99.90;;;;;;4988772;28;20566;-80
2021/07/09 04:30:50;;;;;;;67.03;32.63;;;15.80;99.90;;;;;;5032887;28;20504;-81
2021/07/09 04:33:16;;;;;;;65.30;30.83;;;15.80;99.90;;;;;;5014002;28;20056;-81
2021/07/09 04:35:42;;;;;;;59.90;30.60;;;15.80;99.90;;;;;;5008654;28;20080;-81
2021/07/09 04:38:08;;;;;;;64.03;31.80;;;15.80;99.90;;;;;;5010003;28;20506;-81
2021/07/09 04:40:34;;;;;;;67.32;32.20;;;15.70;99.90;;;;;;5001210;28;20053;-80
2021/07/09 04:43:00;;;;;;;56.50;30.05;;;15.80;99.90;;;;;;5007079;28;20056;-81
2021/07/09 04:45:26;;;;;;;59.10;30.88;;;15.80;99.90;;;;;;5008958;28;20573;-81
2021/07/09 04:47:51;;;;;;;56.25;29.67;;;15.80;99.90;;;;;;4974450;28;20040;-81
2021/07/09 04:50:17;;;;;;;50.78;29.00;;;15.80;99.90;;;;;;4990959;28;20059;-80
2021/07/09 04:52:44;;;;;;;61.35;30.10;;;15.90;99.90;;;;;;4983199;28;20103;-80
2021/07/09 04:55:12;;;;;;;57.17;29.63;;;15.90;99.90;;;;;;5007304;28;20045;-81
2021/07/09 04:57:38;;;;;;;50.13;27.63;;;15.90;99.90;;;;;;5023936;28;20049;-81
2021/07/09 05:00:06;;;;;;;59.17;30.55;;;15.90;99.90;;;;;;5017280;28;20040;-81
2021/07/09 05:02:32;;;;;;;59.85;31.27;;;16.00;99.90;;;;;;5013886;28;20562;-80
2021/07/09 05:04:58;;;;;;;58.53;28.85;;;16.00;99.90;;;;;;4988837;28;20052;-81
2021/07/09 05:07:23;;;;;;;62.90;31.40;;;16.10;99.90;;;;;;4990945;28;20049;-82
2021/07/09 05:09:49;;;;;;;61.60;30.60;;;16.10;99.90;;;;;;4971941;28;20045;-81
2021/07/09 05:12:15;;;;;;;65.00;31.88;;;16.10;99.90;;;;;;5002940;28;20144;-82
2021/07/09 05:14:41;;;;;;;57.65;29.10;;;16.10;99.90;;;;;;5007963;28;20486;-82
2021/07/09 05:17:07;;;;;;;55.90;28.27;;;16.10;99.90;;;;;;5020860;28;20118;-82
2021/07/09 05:19:33;;;;;;;51.13;28.02;;;16.10;99.90;;;;;;4989742;28;20485;-82
2021/07/09 05:21:59;;;;;;;55.58;28.20;;;16.10;99.90;;;;;;5003068;28;20047;-82
2021/07/09 05:24:27;;;;;;;50.05;27.20;;;16.10;99.90;;;;;;4992766;28;20083;-82
2021/07/09 05:26:56;;;;;;;54.08;28.63;;;16.20;99.90;;;;;;5003489;28;20136;-83
2021/07/09 05:29:22;;;;;;;56.45;29.65;;;16.20;99.90;;;;;;4989156;28;20136;-81
2021/07/09 05:31:48;;;;;;;53.88;29.23;;;16.30;99.90;;;;;;5018914;28;20046;-81
2021/07/09 05:34:14;;;;;;;50.60;27.13;;;16.30;99.90;;;;;;5018356;28;20775;-81
2021/07/09 05:36:41;;;;;;;54.17;27.65;;;16.40;99.90;;;;;;5028770;28;20041;-83
2021/07/09 05:39:06;;;;;;;56.88;29.25;;;16.50;99.90;;;;;;5037439;28;20029;-83
2021/07/09 05:41:32;;;;;;;61.88;29.10;;;16.50;99.90;;;;;;4995486;28;20052;-81
2021/07/09 05:43:58;;;;;;;52.22;28.20;;;16.50;99.90;;;;;;5019236;28;20037;-82
2021/07/09 05:46:26;;;;;;;62.85;28.92;;;16.50;99.90;;;;;;5028814;28;20116;-83
2021/07/09 05:48:52;;;;;;;58.55;29.40;;;16.50;99.90;;;;;;5019590;28;20041;-82
2021/07/09 05:51:18;;;;;;;55.65;27.90;;;16.50;99.90;;;;;;5012616;28;20360;-83
2021/07/09 05:53:45;;;;;;;53.67;28.30;;;16.60;99.90;;;;;;5002701;28;20410;-81
2021/07/09 05:56:11;;;;;;;55.10;27.55;;;16.70;99.90;;;;;;5003312;28;20047;-82
2021/07/09 05:58:36;;;;;;;55.30;30.05;;;16.70;99.90;;;;;;5020082;28;20456;-83
2021/07/09 06:01:02;;;;;;;46.65;26.95;;;16.60;99.90;;;;;;5011708;28;20073;-83
2021/07/09 06:03:28;;;;;;;48.13;28.35;;;16.70;99.90;;;;;;5014944;28;20508;-82
2021/07/09 06:05:54;;;;;;;51.22;27.98;;;16.70;99.90;;;;;;5006081;28;20068;-82
2021/07/09 06:08:19;;;;;;;47.25;26.63;;;16.70;99.90;;;;;;5030837;28;20026;-81
2021/07/09 06:10:45;;;;;;;47.25;26.40;;;16.80;99.90;;;;;;5016743;28;20443;-81
2021/07/09 06:13:11;;;;;;;46.88;27.15;;;16.80;99.90;;;;;;5003758;28;20128;-81
2021/07/09 06:15:37;;;;;;;38.53;25.17;;;16.80;99.90;;;;;;5014784;28;20117;-81
2021/07/09 06:18:03;;;;;;;46.97;27.08;;;16.80;99.90;;;;;;5002264;28;20037;-82
2021/07/09 06:20:28;;;;;;;42.63;24.98;;;16.90;99.90;;;;;;5035419;28;20067;-82
2021/07/09 06:22:54;;;;;;;43.25;24.25;;;16.90;99.90;;;;;;5026381;28;20464;-81
2021/07/09 06:25:21;;;;;;;40.78;25.23;;;17.00;99.90;;;;;;5002611;28;20029;-81
2021/07/09 06:27:47;;;;;;;40.40;25.25;;;17.10;99.90;;;;;;5037964;28;20083;-80
2021/07/09 06:30:14;;;;;;;41.40;25.08;;;17.20;99.90;;;;;;5023791;28;20068;-82
2021/07/09 06:32:39;;;;;;;44.83;25.58;;;17.20;99.80;;;;;;5017077;28;20041;-81
2021/07/09 06:35:09;;;;;;;35.63;22.92;;;17.30;99.70;;;;;;5038694;28;20044;-82
2021/07/09 06:37:35;;;;;;;34.67;23.27;;;17.40;99.60;;;;;;5031616;28;20037;-83
2021/07/09 06:40:03;;;;;;;38.10;22.90;;;17.50;99.40;;;;;;5033877;28;20092;-82
2021/07/09 06:42:29;;;;;;;42.17;23.92;;;17.50;99.20;;;;;;5026279;28;20478;-82
2021/07/09 06:44:55;;;;;;;38.53;23.13;;;17.50;99.00;;;;;;5006655;28;20048;-81
2021/07/09 06:47:21;;;;;;;38.83;23.83;;;17.50;98.80;;;;;;5015113;28;20043;-81
2021/07/09 06:49:46;;;;;;;35.78;22.83;;;17.60;98.90;;;;;;5023677;28;20273;-81
2021/07/09 06:52:12;;;;;;;39.00;22.15;;;17.60;98.90;;;;;;5019514;28;20116;-81
2021/07/09 06:54:39;;;;;;;39.08;24.60;;;17.60;98.80;;;;;;5003291;28;20049;-81
2021/07/09 06:57:05;;;;;;;33.75;22.75;;;17.70;98.90;;;;;;5035124;28;20048;-82
2021/07/09 06:59:30;;;;;;;35.45;21.80;;;17.80;98.60;;;;;;5021106;28;20029;-81
2021/07/09 07:01:56;;;;;;;37.28;21.92;;;17.80;98.50;;;;;;5031012;28;20030;-81
2021/07/09 07:04:25;;;;;;;34.78;22.10;;;17.80;98.40;;;;;;5028600;28;20033;-81
2021/07/09 07:06:52;;;;;;;32.67;20.95;;;17.80;98.10;;;;;;5003188;28;20048;-81
2021/07/09 07:09:18;;;;;;;33.40;21.75;;;17.80;98.10;;;;;;5028202;28;20064;-80
2021/07/09 07:11:44;;;;;;;33.65;20.20;;;17.90;98.30;;;;;;5027978;28;20052;-81
2021/07/09 07:14:10;;;;;;;27.77;17.13;;;17.90;98.20;;;;;;5037046;28;20033;-81
2021/07/09 07:16:36;;;;;;;22.88;15.85;;;18.00;98.00;;;;;;5030034;28;20037;-81
2021/07/09 07:19:02;;;;;;;29.50;18.35;;;18.00;97.60;;;;;;5031861;28;20112;-82
2021/07/09 07:21:28;;;;;;;27.20;19.13;;;17.90;97.50;;;;;;5020317;28;20041;-81
2021/07/09 07:23:54;;;;;;;25.80;17.33;;;17.90;97.50;;;;;;5017041;28;20492;-82
2021/07/09 07:26:20;;;;;;;26.45;16.40;;;17.90;97.40;;;;;;5030847;28;20038;-81
2021/07/09 07:28:46;;;;;;;20.90;15.52;;;17.80;97.40;;;;;;5035593;28;20049;-82
2021/07/09 07:31:12;;;;;;;22.38;15.82;;;17.80;97.50;;;;;;5035025;28;20029;-81
2021/07/09 07:33:39;;;;;;;24.45;17.33;;;17.80;97.60;;;;;;5034618;28;20116;-80
2021/07/09 07:36:05;;;;;;;26.17;17.10;;;17.80;97.80;;;;;;5029203;28;20067;-81
2021/07/09 07:38:31;;;;;;;22.27;15.93;;;17.80;97.60;;;;;;5018599;28;20025;-82
2021/07/09 07:40:57;;;;;;;23.25;16.75;;;17.80;97.50;;;;;;5022701;28;20133;-81
2021/07/09 07:43:23;;;;;;;21.48;15.40;;;17.80;97.20;;;;;;5022200;28;20041;-81
2021/07/09 07:45:49;;;;;;;20.63;15.52;;;17.80;97.20;;;;;;5038116;28;20043;-80
2021/07/09 07:48:15;;;;;;;24.08;15.50;;;17.80;97.10;;;;;;5030993;28;20160;-80
2021/07/09 07:50:41;;;;;;;22.33;15.68;;;17.80;97.20;;;;;;5031598;28;20033;-81
2021/07/09 07:53:07;;;;;;;20.63;13.35;;;17.90;97.20;;;;;;5036799;28;20029;-80
2021/07/09 07:55:35;;;;;;;24.77;16.25;;;18.10;97.20;;;;;;5007622;28;20408;-80
2021/07/09 07:58:01;;;;;;;26.98;16.80;;;18.20;97.10;;;;;;5030873;28;20064;-81
2021/07/09 08:00:27;;;;;;;30.60;18.77;;;18.20;96.90;;;;;;5038221;28;20072;-81
2021/07/09 08:02:52;;;;;;;24.45;15.32;;;18.30;96.80;;;;;;5019056;28;20025;-81
2021/07/09 08:05:18;;;;;;;18.33;13.70;;;18.40;96.50;;;;;;5010391;28;20034;-80
2021/07/09 08:07:44;;;;;;;23.45;13.52;;;18.40;96.50;;;;;;5004496;28;20124;-81
2021/07/09 08:10:11;;;;;;;19.73;13.13;;;18.40;96.00;;;;;;5034685;28;20117;-81
2021/07/09 08:12:37;;;;;;;17.70;12.23;;;18.30;96.00;;;;;;5037017;28;20082;-81
2021/07/09 08:15:04;;;;;;;20.20;13.77;;;18.30;96.30;;;;;;5016522;28;20036;-80
2021/07/09 08:17:29;;;;;;;23.17;15.35;;;18.30;96.40;;;;;;5035152;28;20029;-81
2021/07/09 08:19:57;;;;;;;22.13;14.75;;;18.30;96.20;;;;;;5009789;28;20513;-81
2021/07/09 08:22:23;;;;;;;16.80;12.63;;;18.30;96.10;;;;;;5035058;28;20086;-81
2021/07/09 08:24:49;;;;;;;18.02;12.27;;;18.40;96.20;;;;;;5040337;28;20045;-80
2021/07/09 08:27:15;;;;;;;20.67;13.85;;;18.50;95.80;;;;;;5040566;28;20037;-81
2021/07/09 08:29:42;;;;;;;23.77;14.23;;;18.50;95.60;;;;;;5030791;28;20029;-81
2021/07/09 08:32:08;;;;;;;18.90;11.82;;;18.60;95.80;;;;;;5017347;28;20033;-81
2021/07/09 08:34:37;;;;;;;14.18;9.90;;;18.60;95.50;;;;;;5034899;28;20030;-80
2021/07/09 08:37:03;;;;;;;13.65;9.68;;;18.50;95.10;;;;;;5032845;28;20071;-81
2021/07/09 08:39:29;;;;;;;17.80;10.30;;;18.50;94.90;;;;;;5017840;28;20033;-82
2021/07/09 08:41:56;;;;;;;20.70;12.20;;;18.50;94.90;;;;;;5032047;28;20029;-82
2021/07/09 08:44:23;;;;;;;14.75;11.20;;;18.60;95.00;;;;;;5024039;28;20120;-82
2021/07/09 08:46:50;;;;;;;14.90;9.93;;;18.70;95.00;;;;;;5017968;28;20045;-82
2021/07/09 08:49:17;;;;;;;14.32;10.52;;;18.70;94.90;;;;;;5034836;28;20068;-81
2021/07/09 08:51:43;;;;;;;15.32;10.82;;;18.80;94.40;;;;;;5030364;28;20275;-82
2021/07/09 08:54:12;;;;;;;14.73;11.20;;;18.90;94.40;;;;;;5017409;28;20040;-81
2021/07/09 08:56:38;;;;;;;16.50;10.82;;;18.90;94.40;;;;;;5016316;28;20060;-82
2021/07/09 08:59:04;;;;;;;14.30;10.25;;;19.00;94.40;;;;;;5016182;28;20948;-82
2021/07/09 09:01:30;;;;;;;13.25;9.70;;;19.10;94.60;;;;;;5015229;28;20108;-81
2021/07/09 09:04:06;;;;;;;14.50;9.80;;;19.10;93.90;;;;;;5032649;28;20063;-79
2021/07/09 09:06:32;;;;;;;13.48;9.93;;;19.10;93.80;;;;;;5035027;28;20409;-81
2021/07/09 09:08:58;;;;;;;12.73;9.73;;;19.10;93.70;;;;;;5026570;28;20125;-82
2021/07/09 09:11:23;;;;;;;17.90;10.52;;;19.10;93.60;;;;;;5006853;28;20040;-82
2021/07/09 09:13:49;;;;;;;13.95;9.77;;;19.10;93.70;;;;;;5032269;28;20406;-82
2021/07/09 09:16:16;;;;;;;14.07;10.35;;;19.20;93.70;;;;;;5015188;28;20075;-80
2021/07/09 09:18:56;;;;;;;13.02;10.55;;;19.20;93.50;;;;;;5039334;28;20030;-81
2021/07/09 09:21:25;;;;;;;14.70;10.27;;;19.20;93.50;;;;;;5034898;28;20046;-81
2021/07/09 09:23:55;;;;;;;16.45;12.10;;;19.30;93.30;;;;;;5036917;28;20551;-81
2021/07/09 09:26:45;;;;;;;14.27;10.43;;;19.30;93.20;;;;;;5036714;28;20104;-80
2021/07/09 09:29:33;;;;;;;14.65;9.90;;;19.30;93.20;;;;;;5039948;28;20042;-82
2021/07/09 09:32:05;;;;;;;12.05;9.00;;;19.40;93.10;;;;;;5030338;28;20025;-81
2021/07/09 09:34:50;;;;;;;14.02;10.52;;;19.50;93.00;;;;;;5026207;28;20083;-81
2021/07/09 09:37:23;;;;;;;11.57;8.90;;;19.50;94.00;;;;;;5014038;28;20036;-80
2021/07/09 09:39:49;;;;;;;10.70;8.52;;;19.50;93.40;;;;;;5034546;28;20116;-81
2021/07/09 09:42:24;;;;;;;11.00;8.13;;;19.60;92.90;;;;;;5029139;28;20041;-81
2021/07/09 09:45:01;;;;;;;7.72;6.75;;;19.60;92.30;;;;;;5028981;28;20038;-80
2021/07/09 09:47:31;;;;;;;10.52;7.22;;;19.60;91.80;;;;;;5020994;28;20033;-81
2021/07/09 09:49:59;;;;;;;10.30;7.40;;;19.50;92.00;;;;;;5029170;28;20512;-81
2021/07/09 09:52:39;;;;;;;12.18;8.40;;;19.50;92.30;;;;;;5029304;28;20063;-80
2021/07/09 09:55:07;;;;;;;10.15;8.05;;;19.50;92.50;;;;;;5034000;28;20124;-81
2021/07/09 09:57:35;;;;;;;10.52;8.85;;;19.50;92.30;;;;;;5035804;28;20382;-80
2021/07/09 10:00:02;;;;;;;9.20;8.10;;;19.50;92.20;;;;;;5019720;28;20441;-83
2021/07/09 10:02:30;;;;;;;8.30;7.20;;;19.50;91.90;;;;;;5013586;28;20029;-81
2021/07/09 10:04:57;;;;;;;12.20;7.20;;;19.50;91.80;;;;;;5020252;28;20308;-81
2021/07/09 10:07:23;;;;;;;8.50;7.20;;;19.40;91.50;;;;;;4997443;28;20053;-81
2021/07/09 10:09:49;;;;;;;7.93;6.85;;;19.40;91.50;;;;;;5006563;28;20037;-82
2021/07/09 10:12:18;;;;;;;13.30;7.80;;;19.50;91.30;;;;;;5041160;28;20104;-81
2021/07/09 10:14:45;;;;;;;12.20;7.18;;;19.50;91.50;;;;;;5027333;28;20565;-79
2021/07/09 10:17:15;;;;;;;10.07;7.18;;;19.50;91.40;;;;;;5019183;28;20091;-81
2021/07/09 10:19:44;;;;;;;9.82;6.95;;;19.50;91.50;;;;;;5037191;28;20029;-81
2021/07/09 10:22:10;;;;;;;11.98;7.50;;;19.50;91.40;;;;;;5040829;28;20033;-80
2021/07/09 10:24:44;;;;;;;8.77;6.85;;;19.60;91.30;;;;;;5034340;28;20037;-82
2021/07/09 10:27:17;;;;;;;10.23;8.55;;;19.60;91.50;;;;;;5026062;28;20531;-79
2021/07/09 10:29:45;;;;;;;9.52;7.30;;;19.60;91.30;;;;;;5034575;28;20491;-81
2021/07/09 10:32:12;;;;;;;10.57;7.30;;;19.60;91.30;;;;;;5035198;28;20040;-79
2021/07/09 10:34:47;;;;;;;8.48;7.38;;;19.70;91.10;;;;;;5027591;28;20042;-80
2021/07/09 10:37:21;;;;;;;10.30;7.07;;;19.80;90.90;;;;;;5030480;28;20042;-81
2021/07/09 10:40:02;;;;;;;10.88;7.38;;;19.80;90.90;;;;;;5032077;28;20049;-81
2021/07/09 10:42:39;;;;;;;11.48;7.90;;;19.90;91.10;;;;;;5036329;28;20287;-80
2021/07/09 10:45:34;;;;;;;9.35;7.35;;;19.90;91.10;;;;;;5031391;28;20040;-81
2021/07/09 10:48:10;;;;;;;9.93;7.00;;;20.00;91.10;;;;;;4995739;28;20568;-81
2021/07/09 10:50:50;;;;;;;11.88;8.10;;;20.10;91.00;;;;;;5027205;28;20045;-81
2021/07/09 10:53:17;;;;;;;12.38;7.70;;;20.20;90.10;;;;;;5031524;28;20025;-82
2021/07/09 10:55:49;;;;;;;10.80;7.40;;;20.40;90.20;;;;;;5041806;28;20029;-81
2021/07/09 10:58:27;;;;;;;13.52;6.85;;;20.50;90.20;;;;;;5031988;28;20037;-81
2021/07/09 11:01:05;;;;;;;11.25;7.35;;;20.50;90.60;;;;;;5027321;28;20662;-80
2021/07/09 11:03:41;;;;;;;7.75;6.18;;;20.60;90.00;;;;;;5032378;28;20045;-80
2021/07/09 11:06:13;;;;;;;8.60;6.72;;;20.60;90.00;;;;;;5014212;28;20493;-82
2021/07/09 11:08:41;;;;;;;9.55;7.18;;;20.60;90.20;;;;;;5016921;28;20079;-80
2021/07/09 11:11:11;;;;;;;7.70;6.90;;;20.70;90.00;;;;;;5028736;28;20143;-80
2021/07/09 11:13:42;;;;;;;;;;;20.60;88.70;;;;;;5045806;28;20052;-82
2021/07/09 11:16:27;;;;;;;11.45;6.57;;;20.70;88.90;;;;;;5024557;28;20020;-82
2021/07/09 11:19:02;;;;;;;8.68;7.05;;;20.70;89.40;;;;;;5048837;28;20033;-82
2021/07/09 11:21:34;;;;;;;10.55;6.65;;;20.80;89.30;;;;;;5044921;28;20045;-81
2021/07/09 11:24:06;;;;;;;8.85;6.60;;;20.90;89.30;;;;;;5037899;28;20104;-82
2021/07/09 11:26:36;;;;;;;7.82;6.85;;;20.90;88.20;;;;;;5042545;28;20042;-81
2021/07/09 11:29:33;;;;;;;10.02;6.95;;;20.90;87.30;;;;;;5045721;28;20044;-81
2021/07/09 11:32:00;;;;;;;13.40;6.28;;;21.00;87.60;;;;;;5048457;28;20493;-83
2021/07/09 11:34:28;;;;;;;11.45;6.85;;;21.00;86.90;;;;;;5047955;28;20037;-81
2021/07/09 11:36:59;;;;;;;6.63;5.47;;;21.00;86.50;;;;;;5037318;28;20037;-83
2021/07/09 11:39:27;;;;;;;7.35;5.45;;;21.10;85.50;;;;;;5028861;28;20140;-82
2021/07/09 11:41:56;;;;;;;5.82;5.10;;;21.20;85.80;;;;;;5035152;28;20037;-82
2021/07/09 11:44:43;;;;;;;8.95;6.35;;;21.20;85.90;;;;;;5044030;28;20115;-81
2021/07/09 11:47:18;;;;;;;8.32;6.38;;;21.30;86.00;;;;;;5030853;28;20091;-81
2021/07/09 11:49:51;;;;;;;8.45;6.05;;;21.30;86.40;;;;;;5035281;28;20041;-84
2021/07/09 11:52:28;;;;;;;10.00;6.53;;;21.30;86.10;;;;;;5035741;28;20504;-83
2021/07/09 11:54:56;;;;;;;8.43;5.47;;;21.30;86.80;;;;;;5040802;28;20038;-84
2021/07/09 11:57:41;;;;;;;10.85;5.88;;;21.30;85.50;;;;;;5044470;28;20240;-81
2021/07/09 12:00:13;;;;;;;9.60;6.45;;;21.30;85.50;;;;;;5032173;28;20049;-83
2021/07/09 12:02:40;;;;;;;6.93;5.68;;;21.30;84.70;;;;;;5044241;28;20036;-82
2021/07/09 12:05:08;;;;;;;8.63;5.13;;;21.20;84.70;;;;;;5038020;28;20095;-80
2021/07/09 12:07:39;;;;;;;6.65;5.88;;;21.10;83.90;;;;;;5016345;28;20048;-81
2021/07/09 12:10:20;;;;;;;8.18;5.57;;;21.10;83.20;;;;;;5035929;28;20052;-82
2021/07/09 12:12:55;;;;;;;8.27;6.10;;;21.20;83.90;;;;;;5029427;28;21448;-81
2021/07/09 12:15:30;;;;;;;7.63;5.55;;;21.20;84.10;;;;;;5042047;28;20033;-83
2021/07/09 12:18:22;;;;;;;6.10;5.20;;;21.30;84.60;;;;;;5045109;28;20172;-82
2021/07/09 12:20:49;;;;;;;6.97;5.60;;;21.40;82.80;;;;;;5019796;28;20053;-81
2021/07/09 12:23:16;;;;;;;9.40;5.85;;;21.60;83.70;;;;;;5031923;28;20163;-82
2021/07/09 12:25:45;;;;;;;13.07;6.25;;;21.70;85.60;;;;;;5042509;28;20454;-82
2021/07/09 12:28:18;;;;;;;7.38;6.07;;;21.70;84.20;;;;;;5039845;28;20049;-82
2021/07/09 12:30:49;;;;;;;8.90;5.53;;;21.70;83.10;;;;;;5041840;28;20041;-85
2021/07/09 12:33:20;;;;;;;9.73;6.53;;;21.70;84.10;;;;;;5042333;28;20030;-81
2021/07/09 12:35:46;;;;;;;7.55;5.90;;;21.70;83.40;;;;;;5038000;28;20040;-81
2021/07/09 12:38:14;;;;;;;8.07;6.00;;;21.70;83.50;;;;;;5036932;28;20035;-83